Time;durP1;ratioP1;P1;durP2;ratioP2;P2;SDS_P1;SDS_P2;PMS_P1;PMS_P2;Temp;Humidity;BMP_temperature;BMP_pressure;BME280_temperature;BME280_humidity;BME280_pressure;Samples;Min_cycle;Max_cycle;Signal;HPM_P1;HPM_P2
2024/01/23 20:23:36;;;;;;;5.32;4.80;;;;;;;;;;5044878;28;20389;-66
2024/01/23 20:26:04;;;;;;;6.18;3.55;;;;;;;;;;5037010;28;20679;-65
2024/01/23 20:28:33;;;;;;;8.48;2.53;;;;;;;;;;5021976;28;20139;-65
2024/01/23 20:31:00;;;;;;;7.88;3.65;;;;;;;;;;5033001;28;20044;-67
2024/01/23 20:33:30;;;;;;;8.82;5.10;;;;;;;;;;5043284;28;20048;-67
2024/01/23 20:36:01;;;;;;;6.22;3.92;;;;;;;;;;5047422;28;20060;-65
2024/01/23 20:38:29;;;;;;;2.08;1.88;;;;;;;;;;5047722;28;20033;-66
2024/01/23 20:40:59;;;;;;;8.07;5.13;;;;;;;;;;5049323;28;20060;-66
2024/01/23 20:43:28;;;;;;;29.58;4.82;;;;;;;;;;5049359;28;20064;-66
2024/01/23 20:45:56;;;;;;;3.60;3.30;;;;;;;;;;5049453;28;20041;-66
2024/01/23 20:48:23;;;;;;;4.88;4.43;;;;;;;;;;5049431;28;20041;-66
2024/01/23 20:50:52;;;;;;;7.25;4.80;;;;;;;;;;5049454;28;20037;-66
2024/01/23 20:53:20;;;;;;;7.10;3.83;;;;;;;;;;5049087;28;20041;-65
2024/01/23 20:55:47;;;;;;;6.47;3.83;;;;;;;;;;5049078;28;20153;-66
2024/01/23 20:58:18;;;;;;;3.90;1.48;;;;;;;;;;5049413;28;20137;-65
2024/01/23 21:00:48;;;;;;;7.28;6.72;;;;;;;;;;5049078;28;20045;-66
2024/01/23 21:03:16;;;;;;;3.90;3.25;;;;;;;;;;5049076;28;20041;-65
2024/01/23 21:05:44;;;;;;;3.80;2.15;;;;;;;;;;5048973;28;20041;-65
2024/01/23 21:08:11;;;;;;;2.75;1.08;;;;;;;;;;5049020;28;20398;-65
2024/01/23 21:10:44;;;;;;;0.90;0.82;;;;;;;;;;5048826;28;20380;-65
2024/01/23 21:13:12;;;;;;;3.70;3.38;;;;;;;;;;5048966;28;20118;-65
2024/01/23 21:15:41;;;;;;;4.45;3.92;;;;;;;;;;5048901;28;20084;-65
2024/01/23 21:18:10;;;;;;;2.42;1.88;;;;;;;;;;5048920;28;20045;-66
2024/01/23 21:20:41;;;;;;;2.28;2.03;;;;;;;;;;5047410;28;20072;-65
2024/01/23 21:23:08;;;;;;;9.88;5.22;;;;;;;;;;5048450;28;20041;-66
2024/01/23 21:25:38;;;;;;;1.50;1.35;;;;;;;;;;5048347;28;20037;-66
2024/01/23 21:28:08;;;;;;;6.93;3.42;;;;;;;;;;5047489;28;20041;-66
2024/01/23 21:30:36;;;;;;;5.32;4.13;;;;;;;;;;5048345;28;20038;-65
2024/01/23 21:33:04;;;;;;;23.52;3.72;;;;;;;;;;5045529;28;20037;-65
2024/01/23 21:35:32;;;;;;;2.92;2.75;;;;;;;;;;5034186;28;20406;-65
2024/01/23 21:38:01;;;;;;;8.25;3.22;;;;;;;;;;5035178;28;20116;-65
2024/01/23 21:40:29;;;;;;;2.30;2.20;;;;;;;;;;5034795;28;20046;-65
2024/01/23 21:43:00;;;;;;;1.60;1.50;;;;;;;;;;5034151;28;20049;-65
2024/01/23 21:45:27;;;;;;;3.45;1.55;;;;;;;;;;5034984;28;20041;-65
2024/01/23 21:47:55;;;;;;;1.70;1.63;;;;;;;;;;5035033;28;20116;-66
2024/01/23 21:50:25;;;;;;;3.58;3.25;;;;;;;;;;5035127;28;20068;-66
2024/01/23 21:52:54;;;;;;;3.33;2.10;;;;;;;;;;5034906;28;20045;-65
2024/01/23 21:55:21;;;;;;;4.70;4.40;;;;;;;;;;5033345;28;20092;-66
2024/01/23 21:57:49;;;;;;;1.88;1.77;;;;;;;;;;5034864;28;20099;-66
2024/01/23 22:00:19;;;;;;;3.03;2.03;;;;;;;;;;5034846;28;20089;-65
2024/01/23 22:02:47;;;;;;;9.07;4.55;;;;;;;;;;5034757;28;20056;-66
2024/01/23 22:05:15;;;;;;;5.03;3.15;;;;;;;;;;5034908;28;20383;-65
2024/01/23 22:07:45;;;;;;;3.40;3.17;;;;;;;;;;5034716;28;20053;-66
2024/01/23 22:10:13;;;;;;;5.38;4.75;;;;;;;;;;5033098;28;20376;-65
2024/01/23 22:12:41;;;;;;;4.18;3.83;;;;;;;;;;5034553;28;20075;-65
2024/01/23 22:15:09;;;;;;;4.18;2.95;;;;;;;;;;5034617;28;20041;-65
2024/01/23 22:17:39;;;;;;;6.32;3.35;;;;;;;;;;5034421;28;20053;-65
2024/01/23 22:20:09;;;;;;;6.68;2.72;;;;;;;;;;5034292;28;20073;-65
2024/01/23 22:22:40;;;;;;;1.95;1.85;;;;;;;;;;5034169;28;20041;-66
2024/01/23 22:25:07;;;;;;;5.15;2.97;;;;;;;;;;5033044;28;20470;-65
2024/01/23 22:27:35;;;;;;;8.30;3.58;;;;;;;;;;5034245;28;20037;-66
2024/01/23 22:30:03;;;;;;;6.20;2.17;;;;;;;;;;5034356;28;20121;-65
2024/01/23 22:32:31;;;;;;;4.72;3.85;;;;;;;;;;5034403;28;20520;-66
2024/01/23 22:35:00;;;;;;;4.10;3.72;;;;;;;;;;5033033;28;20101;-66
2024/01/23 22:37:27;;;;;;;4.25;3.72;;;;;;;;;;5034164;28;20129;-66
2024/01/23 22:39:55;;;;;;;6.47;4.32;;;;;;;;;;5034094;28;20597;-66
2024/01/23 22:42:23;;;;;;;3.67;2.40;;;;;;;;;;5034035;28;20049;-66
2024/01/23 22:44:50;;;;;;;20.05;5.60;;;;;;;;;;5033023;28;20065;-66
2024/01/23 22:47:18;;;;;;;3.92;2.25;;;;;;;;;;5033750;28;20125;-65
2024/01/23 22:49:48;;;;;;;1.67;1.58;;;;;;;;;;5032797;28;20035;-65
2024/01/23 22:52:17;;;;;;;2.78;2.25;;;;;;;;;;5033925;28;20048;-65
2024/01/23 22:54:44;;;;;;;5.20;2.58;;;;;;;;;;5032592;28;20037;-65
2024/01/23 22:57:15;;;;;;;3.03;2.47;;;;;;;;;;5033833;28;20395;-65
2024/01/23 22:59:43;;;;;;;2.10;1.23;;;;;;;;;;5033673;28;20046;-66
2024/01/23 23:02:11;;;;;;;2.42;1.63;;;;;;;;;;5033836;28;20483;-66
2024/01/23 23:04:58;;;;;;;12.02;2.58;;;;;;;;;;5033769;28;20041;-66
2024/01/23 23:07:26;;;;;;;2.92;2.78;;;;;;;;;;5032390;28;20502;-66
2024/01/23 23:09:54;;;;;;;5.28;2.72;;;;;;;;;;5033826;28;20045;-66
2024/01/23 23:12:21;;;;;;;4.40;3.72;;;;;;;;;;5033441;28;20406;-65
2024/01/23 23:14:49;;;;;;;3.03;2.83;;;;;;;;;;5032302;28;20044;-64
2024/01/23 23:17:17;;;;;;;8.30;6.93;;;;;;;;;;5033298;28;20048;-65
2024/01/23 23:19:44;;;;;;;5.57;2.58;;;;;;;;;;5033384;28;20038;-66
2024/01/23 23:22:12;;;;;;;2.83;2.63;;;;;;;;;;5033183;28;20111;-66
2024/01/23 23:24:40;;;;;;;8.82;5.55;;;;;;;;;;5033171;28;20129;-66
2024/01/23 23:27:07;;;;;;;3.80;2.78;;;;;;;;;;5032814;28;20438;-66
2024/01/23 23:29:35;;;;;;;6.78;4.57;;;;;;;;;;5033095;28;20088;-66
2024/01/23 23:32:02;;;;;;;7.80;6.93;;;;;;;;;;5033170;28;20422;-66
2024/01/23 23:34:30;;;;;;;0.17;0.17;;;;;;;;;;5032587;28;20076;-66
2024/01/23 23:36:57;;;;;;;6.38;4.60;;;;;;;;;;5032966;28;20491;-66
2024/01/23 23:39:27;;;;;;;4.63;2.92;;;;;;;;;;5032944;28;20517;-66
2024/01/23 23:41:55;;;;;;;5.55;4.65;;;;;;;;;;5032834;28;20052;-65
2024/01/23 23:44:23;;;;;;;6.63;5.03;;;;;;;;;;5032714;28;20053;-66
2024/01/23 23:46:50;;;;;;;2.45;2.17;;;;;;;;;;5031948;28;20442;-66
2024/01/23 23:49:18;;;;;;;4.47;1.42;;;;;;;;;;5031174;28;20049;-65
2024/01/23 23:51:46;;;;;;;3.40;2.53;;;;;;;;;;5032757;28;20442;-65
2024/01/23 23:54:14;;;;;;;14.68;2.63;;;;;;;;;;5032830;28;20061;-65
2024/01/23 23:56:42;;;;;;;1.90;1.75;;;;;;;;;;5031148;28;20614;-65
2024/01/23 23:59:10;;;;;;;2.35;1.75;;;;;;;;;;5032650;28;20037;-65
